Time;durP1;ratioP1;P1;durP2;ratioP2;P2;SDS_P1;SDS_P2;PMS_P1;PMS_P2;Temp;Humidity;BMP_temperature;BMP_pressure;BME280_temperature;BME280_humidity;BME280_pressure;Samples;Min_cycle;Max_cycle;Signal;HPM_P1;HPM_P2
2022/11/22 00:01:43;;;;;;;1.38;0.90;;;;;;;4.38;89.99;94110.28;5064900;28;20265;-76
2022/11/22 00:04:10;;;;;;;1.40;0.82;;;;;;;4.42;88.98;94101.34;5063474;28;20203;-75
2022/11/22 00:06:38;;;;;;;1.70;0.88;;;;;;;4.37;88.63;94104.16;5057910;28;20231;-75
2022/11/22 00:09:05;;;;;;;0.65;0.65;;;;;;;4.42;88.34;94105.91;5058861;28;20234;-76
2022/11/22 00:11:32;;;;;;;1.20;1.05;;;;;;;4.40;88.54;94098.16;5056664;28;20300;-76
2022/11/22 00:13:59;;;;;;;1.98;1.35;;;;;;;4.38;89.75;94099.53;5059602;28;20199;-77
2022/11/22 00:16:25;;;;;;;1.45;1.05;;;;;;;4.38;89.29;94110.28;5056734;28;20203;-77
2022/11/22 00:18:52;;;;;;;1.00;0.90;;;;;;;4.42;88.94;94105.91;5058336;28;20195;-76
2022/11/22 00:21:19;;;;;;;1.65;0.82;;;;;;;4.47;88.58;94113.84;5057075;28;20210;-77
2022/11/22 00:23:47;;;;;;;0.70;0.70;;;;;;;4.51;88.29;94114.84;5069876;28;20191;-76
2022/11/22 00:26:14;;;;;;;0.70;0.70;;;;;;;4.50;88.96;94114.03;5057344;28;20780;-76
2022/11/22 00:28:40;;;;;;;0.63;0.63;;;;;;;4.49;88.26;94117.03;5057722;28;20230;-77
2022/11/22 00:31:07;;;;;;;1.45;0.57;;;;;;;4.43;88.08;94119.00;5057865;28;20206;-78
2022/11/22 00:33:34;;;;;;;1.05;0.80;;;;;;;4.38;88.42;94115.63;5056586;28;20282;-76
2022/11/22 00:36:00;;;;;;;0.65;0.65;;;;;;;4.36;88.44;94117.84;5063733;28;20199;-76
2022/11/22 00:38:28;;;;;;;2.45;1.20;;;;;;;4.39;88.85;94111.84;5064104;28;20202;-76
2022/11/22 00:40:56;;;;;;;0.90;0.90;;;;;;;4.34;89.34;94120.03;5057990;28;20679;-76
2022/11/22 00:43:23;;;;;;;1.13;1.02;;;;;;;4.33;89.15;94107.72;5057106;28;20302;-77
2022/11/22 00:45:49;;;;;;;1.02;0.77;;;;;;;4.47;89.06;94121.88;5062626;28;20270;-76
2022/11/22 00:48:16;;;;;;;1.48;1.25;;;;;;;4.42;88.84;94111.25;5063492;28;20253;-76
2022/11/22 00:50:43;;;;;;;5.10;1.65;;;;;;;4.41;89.08;94120.41;5050313;28;20212;-76
2022/11/22 00:53:10;;;;;;;1.30;1.20;;;;;;;4.43;89.33;94119.00;5051931;28;20208;-76
2022/11/22 00:55:36;;;;;;;1.08;1.02;;;;;;;4.58;88.98;94115.19;5061778;28;20204;-76
2022/11/22 00:58:04;;;;;;;1.77;1.10;;;;;;;4.52;88.62;94116.41;5052260;28;20258;-77
2022/11/22 01:00:31;;;;;;;1.77;1.27;;;;;;;4.44;88.45;94114.44;5061803;28;20658;-77
2022/11/22 01:02:58;;;;;;;1.08;0.95;;;;;;;4.32;89.03;94114.16;5063472;28;20339;-76
2022/11/22 01:05:25;;;;;;;0.90;0.90;;;;;;;4.24;89.10;94118.34;5050667;28;20211;-77
2022/11/22 01:07:51;;;;;;;0.40;0.40;;;;;;;4.21;89.20;94114.41;5064190;28;20226;-75
2022/11/22 01:10:18;;;;;;;1.02;0.75;;;;;;;4.13;89.64;94115.09;5059235;28;20222;-76
2022/11/22 01:12:45;;;;;;;1.80;1.33;;;;;;;4.10;90.05;94121.03;5056846;28;20210;-77
2022/11/22 01:15:14;;;;;;;3.75;2.15;;;;;;;4.03;90.95;94120.66;5060796;28;20196;-76
2022/11/22 01:17:41;;;;;;;3.22;1.40;;;;;;;4.01;90.78;94122.03;5050086;28;20204;-75
2022/11/22 01:20:09;;;;;;;1.45;1.35;;;;;;;4.02;90.71;94113.72;5049539;28;20260;-77
2022/11/22 01:22:36;;;;;;;1.08;0.95;;;;;;;4.04;90.36;94111.53;5050130;28;20207;-77
2022/11/22 01:25:03;;;;;;;1.60;0.93;;;;;;;4.05;90.71;94106.97;5049921;28;20219;-75
2022/11/22 01:27:30;;;;;;;1.95;1.50;;;;;;;4.08;90.78;94112.53;5052321;28;20222;-76
2022/11/22 01:29:56;;;;;;;1.58;1.35;;;;;;;4.11;90.71;94106.53;5059267;28;20200;-76
2022/11/22 01:32:24;;;;;;;1.00;1.00;;;;;;;4.07;90.80;94118.97;5052849;28;20246;-76
2022/11/22 01:34:51;;;;;;;2.78;1.58;;;;;;;3.87;90.84;94116.69;5058856;28;20259;-75
2022/11/22 01:37:18;;;;;;;1.58;1.40;;;;;;;3.87;91.37;94114.00;5049468;28;20203;-77
2022/11/22 01:39:45;;;;;;;1.52;1.30;;;;;;;3.87;92.04;94116.69;5049344;28;20243;-75
2022/11/22 01:42:12;;;;;;;3.80;2.13;;;;;;;3.83;92.36;94107.66;5049067;28;20625;-76
2022/11/22 01:44:40;;;;;;;1.13;1.00;;;;;;;3.82;92.77;94108.78;5049390;28;20199;-76
2022/11/22 01:47:11;;;;;;;1.83;1.38;;;;;;;3.75;93.63;94113.72;5049108;28;20250;-77
2022/11/22 01:49:44;;;;;;;2.08;1.33;;;;;;;3.69;93.46;94114.91;5048961;28;20542;-76
2022/11/22 01:52:16;;;;;;;1.73;1.25;;;;;;;3.67;93.57;94106.38;5069622;28;20232;-76
2022/11/22 01:54:48;;;;;;;1.35;1.00;;;;;;;3.66;93.67;94110.16;5070547;28;20320;-76
2022/11/22 01:57:17;;;;;;;1.55;1.13;;;;;;;3.42;94.47;94100.38;5075501;28;20218;-76
2022/11/22 01:59:49;;;;;;;1.67;1.58;;;;;;;3.40;94.66;94112.50;5075485;28;20211;-77
2022/11/22 02:02:16;;;;;;;2.65;1.92;;;;;;;3.37;94.58;94097.81;5075980;28;20198;-76
2022/11/22 02:04:45;;;;;;;1.85;1.48;;;;;;;3.38;95.01;94110.13;5075682;28;20264;-76
2022/11/22 02:07:19;;;;;;;1.83;1.67;;;;;;;3.46;95.08;94106.75;5075435;28;20279;-76
2022/11/22 02:09:48;;;;;;;1.48;1.38;;;;;;;3.48;94.58;94115.28;5057844;28;20717;-75
2022/11/22 02:12:17;;;;;;;1.48;1.15;;;;;;;3.36;95.19;94112.28;5055391;28;20265;-75
2022/11/22 02:14:45;;;;;;;3.85;1.85;;;;;;;3.34;95.39;94111.78;5055618;28;20222;-76
2022/11/22 02:17:12;;;;;;;2.08;1.20;;;;;;;3.31;95.79;94116.94;5055427;28;20207;-75
2022/11/22 02:19:42;;;;;;;2.38;1.83;;;;;;;3.19;96.41;94112.84;5068265;28;20238;-75
2022/11/22 02:22:22;;;;;;;2.17;1.45;;;;;;;3.23;96.97;94118.41;5055809;28;20199;-76
2022/11/22 02:24:55;;;;;;;2.88;1.58;;;;;;;3.29;96.51;94117.22;5054816;28;20203;-76
2022/11/22 02:27:26;;;;;;;3.63;1.63;;;;;;;3.38;96.59;94115.47;5054963;28;20227;-76
2022/11/22 02:29:53;;;;;;;2.00;1.05;;;;;;;3.24;96.76;94116.53;5055579;28;20204;-76
2022/11/22 02:32:20;;;;;;;2.45;1.75;;;;;;;3.25;96.80;94108.22;5058241;28;20242;-76
2022/11/22 02:34:48;;;;;;;2.15;1.42;;;;;;;3.26;97.05;94111.69;5064863;28;20203;-76
2022/11/22 02:37:19;;;;;;;2.13;1.48;;;;;;;3.24;96.96;94113.84;5054800;28;20742;-76
2022/11/22 02:39:48;;;;;;;1.70;1.15;;;;;;;3.24;97.11;94120.00;5055305;28;20211;-76
2022/11/22 02:42:15;;;;;;;2.80;1.60;;;;;;;3.11;97.34;94115.41;5068871;28;20261;-76
2022/11/22 02:44:43;;;;;;;2.58;2.05;;;;;;;2.94;97.95;94112.47;5055486;28;20234;-75
2022/11/22 02:47:11;;;;;;;2.15;1.55;;;;;;;3.08;97.00;94099.94;5055144;28;20570;-75
2022/11/22 02:49:41;;;;;;;1.88;1.45;;;;;;;3.09;97.37;94093.50;5054817;28;20257;-75
2022/11/22 02:52:08;;;;;;;4.57;1.95;;;;;;;3.07;97.71;94093.00;5074388;28;20202;-76
2022/11/22 02:54:35;;;;;;;2.13;1.58;;;;;;;3.03;98.41;94091.97;5074910;28;20291;-76
2022/11/22 02:57:02;;;;;;;2.22;1.70;;;;;;;2.92;98.79;94085.22;5054319;28;20334;-75
2022/11/22 02:59:29;;;;;;;1.85;1.52;;;;;;;2.93;98.91;94092.16;5054943;28;20265;-75
2022/11/22 03:01:57;;;;;;;4.38;2.10;;;;;;;2.85;99.03;94099.78;5054661;28;20211;-76
2022/11/22 03:04:27;;;;;;;3.22;1.98;;;;;;;2.76;99.13;94098.03;5054628;28;20273;-75
2022/11/22 03:06:55;;;;;;;2.65;1.60;;;;;;;2.77;99.90;94095.06;5052209;28;20285;-75
2022/11/22 03:09:22;;;;;;;2.08;1.52;;;;;;;2.79;99.40;94092.13;5065021;28;20256;-75
2022/11/22 03:11:49;;;;;;;2.65;1.60;;;;;;;2.73;99.20;94094.06;5051285;28;20702;-75
2022/11/22 03:14:16;;;;;;;1.90;1.52;;;;;;;2.75;98.78;94086.53;5051574;28;20266;-74
2022/11/22 03:16:43;;;;;;;2.90;1.90;;;;;;;2.65;99.49;94088.59;5051344;28;20207;-74
2022/11/22 03:19:11;;;;;;;3.97;2.13;;;;;;;2.57;99.61;94100.75;5065058;28;20257;-75
2022/11/22 03:21:39;;;;;;;1.83;1.63;;;;;;;2.55;100.00;94097.56;5051604;28;20203;-75
2022/11/22 03:24:06;;;;;;;2.33;1.63;;;;;;;2.53;100.00;94107.75;5052801;28;20326;-75
2022/11/22 03:26:33;;;;;;;2.88;1.40;;;;;;;2.49;100.00;94106.72;5060705;28;20205;-75
2022/11/22 03:29:00;;;;;;;4.82;2.40;;;;;;;2.53;100.00;94102.41;5056133;28;20206;-74
2022/11/22 03:31:27;;;;;;;2.10;1.63;;;;;;;2.53;100.00;94093.59;5059924;28;20378;-74
2022/11/22 03:33:54;;;;;;;2.63;1.83;;;;;;;2.47;100.00;94084.84;5054526;28;20240;-75
2022/11/22 03:36:23;;;;;;;2.15;1.75;;;;;;;2.39;100.00;94094.31;5051121;28;20262;-74
2022/11/22 03:38:50;;;;;;;2.70;1.50;;;;;;;2.33;100.00;94083.97;5050610;28;20343;-73
2022/11/22 03:41:18;;;;;;;2.42;1.45;;;;;;;2.35;100.00;94087.16;5060488;28;20211;-75
2022/11/22 03:43:45;;;;;;;3.60;2.13;;;;;;;2.36;100.00;94094.88;5053817;28;20301;-75
2022/11/22 03:46:15;;;;;;;2.53;1.83;;;;;;;2.12;100.00;94094.97;5050834;28;20266;-76
2022/11/22 03:48:42;;;;;;;5.60;3.47;;;;;;;2.16;100.00;94105.06;5051166;28;20295;-74
2022/11/22 03:51:09;;;;;;;5.00;3.60;;;;;;;2.28;100.00;94092.09;5062303;28;20207;-74
2022/11/22 03:53:37;;;;;;;4.97;3.38;;;;;;;2.47;100.00;94106.22;5052121;28;20261;-74
2022/11/22 03:56:05;;;;;;;5.68;3.95;;;;;;;2.39;100.00;94098.88;5050717;28;20207;-73
2022/11/22 03:58:32;;;;;;;5.15;4.07;;;;;;;2.27;100.00;94099.31;5063062;28;20212;-74
2022/11/22 04:00:59;;;;;;;5.20;3.72;;;;;;;2.36;100.00;94107.47;5049480;28;20230;-74
2022/11/22 04:03:26;;;;;;;4.15;3.55;;;;;;;2.31;100.00;94108.34;5050147;28;20211;-75
2022/11/22 04:05:53;;;;;;;6.35;3.85;;;;;;;2.37;100.00;94117.06;5050341;28;20631;-74
2022/11/22 04:08:20;;;;;;;3.13;1.42;;;;;;;2.28;100.00;94113.47;5049954;28;20235;-74
2022/11/22 04:10:50;;;;;;;4.07;2.25;;;;;;;2.25;100.00;94124.72;5049694;28;20227;-74
2022/11/22 04:13:17;;;;;;;4.57;2.08;;;;;;;2.32;100.00;94125.19;5049641;28;20204;-74
2022/11/22 04:15:43;;;;;;;3.45;2.33;;;;;;;2.35;100.00;94124.56;5049862;28;20257;-74
2022/11/22 04:18:10;;;;;;;4.88;2.25;;;;;;;2.24;100.00;94123.13;5049450;28;20211;-74
2022/11/22 04:23:27;;;;;;;3.17;2.15;;;;;;;2.22;100.00;94125.28;5030419;28;20211;-75
2022/11/22 04:25:54;;;;;;;3.72;2.25;;;;;;;2.22;100.00;94125.28;5066182;28;20248;-75
2022/11/22 04:28:23;;;;;;;3.97;2.47;;;;;;;2.22;100.00;94131.44;5070478;28;20235;-75
2022/11/22 04:33:35;;;;;;;13.68;6.97;;;;;;;2.17;100.00;94141.41;5049063;28;20247;-74
2022/11/22 04:36:05;;;;;;;8.52;4.35;;;;;;;2.18;100.00;94140.31;5049056;28;20441;-75
2022/11/22 04:38:32;;;;;;;7.80;3.28;;;;;;;2.10;100.00;94139.88;5050277;28;20262;-74
2022/11/22 04:41:00;;;;;;;7.35;3.75;;;;;;;2.09;100.00;94135.59;5049772;28;20281;-74
2022/11/22 04:46:14;;;;;;;9.32;3.72;;;;;;;1.92;100.00;94143.28;5050195;28;20203;-75
2022/11/22 04:48:46;;;;;;;6.63;3.03;;;;;;;2.01;100.00;94152.28;5062506;28;20231;-75
2022/11/22 04:54:03;;;;;;;5.30;2.80;;;;;;;1.85;100.00;94153.53;5049450;28;20408;-74
2022/11/22 04:56:32;;;;;;;3.22;2.17;;;;;;;1.84;100.00;94165.28;5049641;28;20298;-75
2022/11/22 04:59:03;;;;;;;3.08;1.90;;;;;;;1.81;100.00;94165.84;5050139;28;20277;-75
2022/11/22 05:01:30;;;;;;;2.13;1.88;;;;;;;1.71;100.00;94144.59;5052630;28;20218;-75
2022/11/22 05:03:57;;;;;;;2.03;1.55;;;;;;;2.04;100.00;94173.06;5059188;28;20717;-75
2022/11/22 05:06:29;;;;;;;5.95;2.40;;;;;;;1.88;100.00;94174.31;5050104;28;20697;-74
2022/11/22 05:08:56;;;;;;;1.77;1.20;;;;;;;1.96;100.00;94155.00;5060335;28;20211;-74
2022/11/22 05:11:22;;;;;;;2.63;2.03;;;;;;;1.96;100.00;94168.34;5051980;28;20235;-75
2022/11/22 05:13:51;;;;;;;3.92;2.17;;;;;;;1.97;100.00;94161.94;5060224;28;20727;-75
2022/11/22 05:16:18;;;;;;;7.50;2.38;;;;;;;2.01;100.00;94157.63;5056251;28;20199;-75
2022/11/22 05:18:57;;;;;;;6.93;2.45;;;;;;;2.09;100.00;94162.31;5058387;28;20250;-75
2022/11/22 05:21:25;;;;;;;3.35;2.45;;;;;;;2.03;100.00;94165.34;5048934;28;20199;-75
2022/11/22 05:23:53;;;;;;;2.85;1.70;;;;;;;2.13;100.00;94168.69;5057322;28;20229;-75
2022/11/22 05:26:20;;;;;;;3.72;2.20;;;;;;;2.11;100.00;94168.16;5057880;28;20286;-75
2022/11/22 05:28:47;;;;;;;4.68;2.55;;;;;;;2.09;100.00;94175.66;5049558;28;20243;-75
2022/11/22 05:31:17;;;;;;;4.38;2.38;;;;;;;2.08;100.00;94179.41;5051362;28;20199;-76
2022/11/22 05:33:45;;;;;;;9.38;2.78;;;;;;;2.10;100.00;94165.78;5062853;28;20260;-76
2022/11/22 05:36:13;;;;;;;3.60;2.40;;;;;;;2.06;100.00;94170.09;5057450;28;20210;-75
2022/11/22 05:38:39;;;;;;;5.85;3.67;;;;;;;2.03;100.00;94166.13;5055792;28;20195;-75
2022/11/22 05:41:08;;;;;;;9.20;3.35;;;;;;;2.13;100.00;94171.34;5061144;28;20211;-75
2022/11/22 05:43:35;;;;;;;5.10;3.42;;;;;;;2.05;100.00;94169.28;5062387;28;20731;-75
2022/11/22 05:46:06;;;;;;;4.63;3.20;;;;;;;2.28;100.00;94173.03;5058037;28;20518;-75
2022/11/22 05:48:35;;;;;;;13.45;6.57;;;;;;;2.55;100.00;94161.72;5053353;28;20311;-75
2022/11/22 05:51:05;;;;;;;9.88;4.63;;;;;;;3.14;100.00;94165.66;5049565;28;20203;-75
2022/11/22 05:53:31;;;;;;;5.93;3.63;;;;;;;3.93;100.00;94158.38;5054295;28;20199;-74
2022/11/22 05:56:02;;;;;;;9.38;4.22;;;;;;;4.62;98.80;94159.09;5057841;28;20707;-74
2022/11/22 05:58:29;;;;;;;5.88;4.05;;;;;;;5.38;94.93;94149.28;5053732;28;20195;-75
2022/11/22 06:00:56;;;;;;;8.27;4.20;;;;;;;6.17;90.96;94153.94;5057117;28;20203;-74
2022/11/22 06:03:23;;;;;;;10.02;4.28;;;;;;;6.35;84.33;94156.41;5062647;28;20268;-74
2022/11/22 06:05:53;;;;;;;8.15;4.57;;;;;;;6.68;83.83;94148.72;5061747;28;20199;-74
2022/11/22 06:08:20;;;;;;;9.75;5.50;;;;;;;6.73;82.00;94151.25;5055893;28;20284;-75
2022/11/22 06:10:47;;;;;;;10.30;4.88;;;;;;;6.89;80.71;94167.72;5056337;28;20223;-75
2022/11/22 06:13:14;;;;;;;8.75;4.20;;;;;;;7.20;80.58;94164.91;5055914;28;20272;-75
2022/11/22 06:15:40;;;;;;;11.25;5.35;;;;;;;7.42;79.67;94153.94;5069104;28;20207;-75
2022/11/22 06:18:07;;;;;;;7.53;4.78;;;;;;;7.59;79.38;94157.72;5056243;28;20639;-75
2022/11/22 06:20:34;;;;;;;7.93;3.30;;;;;;;7.32;78.05;94161.56;5069167;28;20651;-75
2022/11/22 06:23:02;;;;;;;10.50;4.65;;;;;;;6.61;78.39;94171.81;5049332;28;20207;-74
2022/11/22 06:25:29;;;;;;;5.68;3.20;;;;;;;6.03;80.53;94165.59;5049627;28;20204;-74
2022/11/22 06:27:58;;;;;;;5.60;3.53;;;;;;;6.13;81.81;94161.06;5061843;28;20581;-75
2022/11/22 06:30:25;;;;;;;4.47;3.47;;;;;;;6.14;83.35;94162.66;5062974;28;20780;-74
2022/11/22 06:32:52;;;;;;;7.55;3.60;;;;;;;5.86;83.28;94162.84;5059841;28;20223;-74
2022/11/22 06:35:19;;;;;;;7.45;3.90;;;;;;;5.41;83.25;94164.78;5050390;28;20212;-75
2022/11/22 06:37:48;;;;;;;5.03;3.70;;;;;;;5.06;85.39;94163.72;5060839;28;20545;-76
2022/11/22 06:40:22;;;;;;;8.07;4.38;;;;;;;4.76;86.77;94175.19;5062741;28;20195;-78
2022/11/22 06:42:51;;;;;;;5.93;3.38;;;;;;;4.13;89.68;94173.25;5062869;28;20210;-76
2022/11/22 06:45:18;;;;;;;7.72;4.45;;;;;;;4.16;92.39;94181.50;5059621;28;20838;-75
2022/11/22 06:47:47;;;;;;;5.90;3.63;;;;;;;4.08;91.33;94192.91;5062884;28;20543;-76
2022/11/22 06:50:14;;;;;;;13.52;3.70;;;;;;;4.02;92.85;94188.75;5053578;28;20211;-76
2022/11/22 06:52:41;;;;;;;10.75;2.72;;;;;;;3.61;91.84;94193.25;5064264;28;20199;-76
2022/11/22 06:55:08;;;;;;;5.22;3.35;;;;;;;3.39;92.97;94189.34;5059640;28;20240;-76
2022/11/22 06:57:36;;;;;;;3.78;2.75;;;;;;;3.14;94.28;94195.88;5061979;28;20671;-77
2022/11/22 07:00:04;;;;;;;7.43;3.67;;;;;;;3.22;95.41;94191.75;5066380;28;20208;-77
2022/11/22 07:02:30;;;;;;;5.78;2.92;;;;;;;3.19;95.71;94205.72;5052450;28;20261;-77
2022/11/22 07:04:57;;;;;;;6.78;3.60;;;;;;;3.46;96.41;94197.78;5051955;28;20219;-75
2022/11/22 07:07:24;;;;;;;6.85;3.90;;;;;;;3.28;95.70;94190.56;5051546;28;20265;-76
2022/11/22 07:09:50;;;;;;;4.68;2.70;;;;;;;3.30;96.24;94199.09;5065183;28;20239;-76
2022/11/22 07:12:18;;;;;;;13.15;8.05;;;;;;;3.49;96.42;94196.41;5063201;28;20195;-77
2022/11/22 07:14:46;;;;;;;15.27;9.43;;;;;;;3.38;95.97;94179.72;5058943;28;20707;-77
2022/11/22 07:17:12;;;;;;;13.88;9.32;;;;;;;3.55;96.28;94190.63;5059242;28;20195;-77
2022/11/22 07:19:39;;;;;;;17.60;9.43;;;;;;;3.49;95.83;94185.69;5070393;28;20277;-77
2022/11/22 07:22:06;;;;;;;13.35;8.73;;;;;;;3.34;95.80;94189.41;5060626;28;20195;-76
2022/11/22 07:24:32;;;;;;;15.82;9.15;;;;;;;3.64;96.20;94179.28;5051712;28;20253;-75
2022/11/22 07:26:59;;;;;;;14.10;8.63;;;;;;;3.77;95.89;94191.88;5050788;28;20617;-76
2022/11/22 07:29:26;;;;;;;9.20;4.35;;;;;;;3.85;94.92;94177.81;5064577;28;20299;-78
2022/11/22 07:31:54;;;;;;;4.25;2.63;;;;;;;4.17;95.04;94183.09;5056513;28;20253;-78
2022/11/22 07:34:21;;;;;;;4.38;2.83;;;;;;;4.25;93.66;94176.22;5056534;28;20619;-78
2022/11/22 07:36:47;;;;;;;6.35;3.88;;;;;;;4.36;92.65;94166.91;5058268;28;20242;-79
2022/11/22 07:39:14;;;;;;;2.80;2.35;;;;;;;4.52;91.33;94159.31;5050631;28;20204;-75
2022/11/22 07:41:41;;;;;;;6.15;3.05;;;;;;;4.73;90.44;94163.16;5054836;28;20211;-77
2022/11/22 07:44:08;;;;;;;7.25;3.47;;;;;;;4.97;89.53;94152.94;5052139;28;20266;-77
2022/11/22 07:46:34;;;;;;;9.48;3.22;;;;;;;5.02;88.53;94140.50;5062432;28;20217;-76
2022/11/22 07:49:03;;;;;;;5.88;3.65;;;;;;;4.77;87.27;94128.47;5051191;28;20231;-75
2022/11/22 07:51:29;;;;;;;6.32;3.30;;;;;;;4.59;87.65;94154.34;5062246;28;20199;-75
2022/11/22 07:53:57;;;;;;;5.55;3.30;;;;;;;4.87;89.21;94160.44;5061634;28;20207;-74
2022/11/22 07:56:26;;;;;;;4.68;3.10;;;;;;;5.12;89.83;94159.03;5050642;28;20219;-77
2022/11/22 07:58:53;;;;;;;6.10;3.38;;;;;;;5.57;88.32;94163.31;5050551;28;20380;-76
2022/11/22 08:01:21;;;;;;;4.15;3.33;;;;;;;5.84;86.52;94151.59;5054189;28;20237;-79
2022/11/22 08:03:47;;;;;;;6.15;2.95;;;;;;;6.24;84.88;94159.69;5053045;28;20239;-76
2022/11/22 08:06:16;;;;;;;5.32;3.50;;;;;;;6.38;84.33;94160.38;5050196;28;20276;-79
2022/11/22 08:08:43;;;;;;;3.30;2.60;;;;;;;6.77;81.43;94157.59;5048611;28;20239;-81
2022/11/22 08:11:15;;;;;;;6.20;3.58;;;;;;;6.43;79.48;94158.31;5050025;28;20230;-79
2022/11/22 08:13:43;;;;;;;6.03;3.92;;;;;;;6.11;80.98;94150.63;5049959;28;20294;-77
2022/11/22 08:16:15;;;;;;;6.22;3.22;;;;;;;5.90;80.72;94149.56;5063567;28;20299;-80
2022/11/22 08:18:51;;;;;;;3.38;2.80;;;;;;;5.94;81.32;94150.56;5050068;28;20206;-79
2022/11/22 08:21:20;;;;;;;6.45;3.40;;;;;;;5.59;80.99;94146.88;5049482;28;20207;-76
2022/11/22 08:23:48;;;;;;;3.72;2.40;;;;;;;5.46;83.30;94155.81;5049904;28;20565;-78
2022/11/22 08:26:21;;;;;;;6.07;3.72;;;;;;;5.26;84.09;94147.16;5050048;28;20207;-77
2022/11/22 08:28:47;;;;;;;3.95;2.80;;;;;;;5.39;85.44;94137.44;5050275;28;20246;-77
2022/11/22 08:31:19;;;;;;;4.32;2.80;;;;;;;5.48;84.01;94143.63;5050048;28;20691;-78
2022/11/22 08:33:52;;;;;;;4.53;3.15;;;;;;;5.76;84.15;94144.25;5049841;28;20247;-77
2022/11/22 08:36:21;;;;;;;8.02;4.03;;;;;;;5.70;82.65;94140.16;5049972;28;20249;-78
2022/11/22 08:38:49;;;;;;;4.88;3.42;;;;;;;5.61;83.90;94134.69;5056811;28;20203;-77
2022/11/22 08:41:16;;;;;;;2.85;2.20;;;;;;;5.89;83.10;94123.81;5048967;28;20293;-77
2022/11/22 08:43:42;;;;;;;2.83;1.90;;;;;;;5.91;83.47;94108.16;5049491;28;20211;-79
2022/11/22 08:46:09;;;;;;;5.07;3.70;;;;;;;6.35;83.44;94107.97;5051164;28;20208;-76
2022/11/22 08:48:37;;;;;;;7.40;3.85;;;;;;;5.98;82.98;94100.44;5049349;28;20281;-76
2022/11/22 08:51:06;;;;;;;10.55;3.50;;;;;;;6.27;83.80;94094.53;5060623;28;20203;-78
2022/11/22 08:53:36;;;;;;;10.43;4.45;;;;;;;6.39;82.86;94098.19;5069506;28;20207;-76
2022/11/22 08:56:08;;;;;;;6.07;4.63;;;;;;;6.59;84.14;94093.28;5069895;28;20570;-77
2022/11/22 08:58:36;;;;;;;5.55;3.90;;;;;;;6.63;82.14;94091.56;5063708;28;20625;-76
2022/11/22 09:01:06;;;;;;;6.75;3.05;;;;;;;6.32;83.20;94089.78;5061973;28;20214;-75
2022/11/22 09:03:34;;;;;;;6.75;3.85;;;;;;;6.55;85.49;94090.47;5058725;28;20225;-75
2022/11/22 09:06:03;;;;;;;5.00;3.58;;;;;;;6.13;85.35;94100.03;5048885;28;20217;-77
2022/11/22 09:08:30;;;;;;;7.00;3.97;;;;;;;5.86;85.09;94097.53;5061956;28;20247;-75
2022/11/22 09:11:02;;;;;;;7.90;3.67;;;;;;;5.95;85.82;94088.41;5061973;28;20226;-76
2022/11/22 09:13:29;;;;;;;7.30;3.45;;;;;;;5.75;85.79;94093.50;5048818;28;20204;-74
2022/11/22 09:16:00;;;;;;;4.75;3.08;;;;;;;5.93;86.29;94087.16;5050854;28;20203;-76
2022/11/22 09:18:27;;;;;;;4.88;3.38;;;;;;;6.13;84.66;94086.59;5059456;28;20269;-75
2022/11/22 09:20:58;;;;;;;6.15;3.65;;;;;;;5.94;84.98;94086.84;5048838;28;20493;-75
2022/11/22 09:23:25;;;;;;;6.20;3.17;;;;;;;5.84;86.32;94091.69;5049424;28;20601;-76
2022/11/22 09:25:57;;;;;;;7.07;3.83;;;;;;;5.92;86.78;94085.56;5049157;28;20207;-76
2022/11/22 09:28:26;;;;;;;5.63;2.00;;;;;;;6.04;86.16;94088.44;5048768;28;20218;-79
2022/11/22 09:30:59;;;;;;;6.57;3.47;;;;;;;6.54;85.78;94082.69;5048193;28;20199;-73
2022/11/22 09:33:25;;;;;;;5.93;3.38;;;;;;;6.62;84.19;94074.63;5048229;28;20241;-74
2022/11/22 09:35:58;;;;;;;5.72;3.50;;;;;;;6.87;83.99;94064.94;5054404;28;20248;-74
2022/11/22 09:38:25;;;;;;;8.27;3.65;;;;;;;7.30;82.29;94066.81;5055699;28;20199;-77
2022/11/22 09:40:52;;;;;;;8.02;4.43;;;;;;;7.29;81.34;94065.22;5048052;28;20703;-76
2022/11/22 09:43:32;;;;;;;5.82;3.40;;;;;;;7.21;80.50;94057.94;5048612;28;20207;-76
2022/11/22 09:46:25;;;;;;;6.82;3.88;;;;;;;7.10;80.89;94058.28;5048128;28;20207;-77
2022/11/22 09:49:13;;;;;;;5.88;2.75;;;;;;;7.02;79.20;94045.63;5048493;28;20242;-74
2022/11/22 09:51:44;;;;;;;4.97;2.90;;;;;;;6.86;80.28;94063.38;5064126;28;20619;-74
2022/11/22 09:54:16;;;;;;;6.80;4.10;;;;;;;6.93;81.15;94061.00;5068362;28;20277;-75
2022/11/22 09:56:44;;;;;;;4.47;2.88;;;;;;;6.62;79.63;94045.03;5064355;28;20204;-77
2022/11/22 09:59:16;;;;;;;5.43;3.33;;;;;;;7.01;80.15;94043.25;5048376;28;20196;-76
2022/11/22 10:01:47;;;;;;;2.17;1.95;;;;;;;6.70;79.79;94048.81;5048586;28;20272;-74
2022/11/22 10:04:20;;;;;;;5.93;3.25;;;;;;;6.62;81.05;94042.31;5048832;28;20207;-74
2022/11/22 10:06:52;;;;;;;4.68;3.45;;;;;;;7.19;80.44;94038.63;5048482;28;20602;-74
2022/11/22 10:09:37;;;;;;;5.13;3.28;;;;;;;7.14;79.34;94034.97;5048619;28;20239;-75
2022/11/22 10:12:11;;;;;;;5.85;3.05;;;;;;;7.17;80.02;94036.25;5047964;28;20203;-74
2022/11/22 10:14:47;;;;;;;6.93;4.07;;;;;;;7.36;79.31;94035.91;5048342;28;20207;-75
2022/11/22 10:17:41;;;;;;;7.38;4.18;;;;;;;7.68;77.68;94019.13;5051506;28;20195;-76
2022/11/22 10:20:14;;;;;;;7.50;4.22;;;;;;;8.11;77.09;94023.50;5052224;28;20199;-76
2022/11/22 10:22:41;;;;;;;6.60;4.05;;;;;;;7.96;75.90;94019.44;5056025;28;20792;-76
2022/11/22 10:25:15;;;;;;;8.45;4.25;;;;;;;8.13;75.96;94007.78;5072153;28;20203;-76
2022/11/22 10:27:43;;;;;;;5.88;3.90;;;;;;;8.09;75.34;93996.06;5066721;28;20665;-77
2022/11/22 10:30:16;;;;;;;9.48;4.28;;;;;;;7.92;76.52;93999.66;5061178;28;20712;-74
2022/11/22 10:32:59;;;;;;;12.73;4.18;;;;;;;8.55;74.08;93987.81;5051460;28;20847;-75
2022/11/22 10:35:43;;;;;;;11.35;5.13;;;;;;;8.81;74.14;93990.28;5050308;28;20195;-75
2022/11/22 10:38:32;;;;;;;5.93;3.53;;;;;;;8.31;72.99;93981.47;5051854;28;20261;-76
2022/11/22 10:41:11;;;;;;;5.10;2.90;;;;;;;8.07;73.46;93977.50;5052194;28;20237;-76
2022/11/22 10:43:45;;;;;;;6.57;3.80;;;;;;;8.39;73.52;93975.25;5053669;28;20202;-75
2022/11/22 10:46:26;;;;;;;7.25;4.68;;;;;;;8.59;73.39;93977.16;5072553;28;20194;-75
2022/11/22 10:49:00;;;;;;;9.52;4.97;;;;;;;8.13;74.32;93975.41;5065110;28;20191;-79
2022/11/22 10:51:43;;;;;;;5.18;3.58;;;;;;;8.43;73.73;93974.28;5051516;28;20717;-75
2022/11/22 10:54:19;;;;;;;6.80;3.28;;;;;;;8.33;73.87;93953.09;5047773;28;20659;-76
2022/11/22 10:56:52;;;;;;;6.57;3.88;;;;;;;8.41;73.68;93960.31;5051734;28;20203;-76
2022/11/22 10:59:50;;;;;;;11.52;3.67;;;;;;;8.25;74.42;93956.59;5051837;28;20219;-76
2022/11/22 11:02:36;;;;;;;5.13;2.83;;;;;;;8.19;74.15;93974.13;5049831;28;20236;-75
2022/11/22 11:05:07;;;;;;;6.13;4.00;;;;;;;8.24;74.42;93973.91;5071721;28;20210;-78
2022/11/22 11:07:35;;;;;;;5.10;3.20;;;;;;;8.48;74.11;93955.16;5057646;28;20196;-80
2022/11/22 11:10:16;;;;;;;10.15;3.55;;;;;;;8.26;74.43;93946.59;5050510;28;20259;-77
2022/11/22 11:12:46;;;;;;;4.85;3.35;;;;;;;8.11;74.66;93950.66;5051545;28;20219;-77
2022/11/22 11:15:20;;;;;;;10.10;4.68;;;;;;;7.79;76.50;93950.22;5050544;28;20199;-75
2022/11/22 11:17:51;;;;;;;6.93;3.22;;;;;;;8.16;75.68;93953.97;5051243;28;20249;-74
2022/11/22 11:20:23;;;;;;;9.23;3.78;;;;;;;8.51;74.89;93959.13;5051967;28;20203;-75
2022/11/22 11:22:50;;;;;;;8.27;4.38;;;;;;;8.34;75.52;93954.63;5051703;28;20196;-75
2022/11/22 11:25:31;;;;;;;8.10;4.10;;;;;;;8.56;74.48;93956.22;5063371;28;20207;-77
2022/11/22 11:28:02;;;;;;;14.15;5.47;;;;;;;8.32;75.57;93951.50;5070359;28;20225;-76
2022/11/22 11:30:37;;;;;;;10.45;3.63;;;;;;;8.74;74.73;93941.44;5071157;28;20235;-74
2022/11/22 11:33:19;;;;;;;6.20;3.40;;;;;;;8.43;75.39;93941.88;5071095;28;20705;-75
2022/11/22 11:35:47;;;;;;;7.85;4.03;;;;;;;8.39;75.47;93930.16;5071679;28;20198;-76
2022/11/22 11:38:31;;;;;;;6.43;3.40;;;;;;;7.99;75.24;93920.94;5054858;28;20207;-76
2022/11/22 11:40:58;;;;;;;6.22;3.35;;;;;;;7.98;76.84;93928.22;5051719;28;20208;-75
2022/11/22 11:43:25;;;;;;;7.60;4.32;;;;;;;7.94;76.59;93931.91;5064860;28;20199;-75
2022/11/22 11:45:52;;;;;;;6.60;3.63;;;;;;;7.81;76.88;93931.81;5051039;28;20206;-76
2022/11/22 11:48:28;;;;;;;7.20;4.30;;;;;;;7.66;77.18;93913.53;5051260;28;20203;-77
2022/11/22 11:51:24;;;;;;;8.52;4.13;;;;;;;7.78;78.42;93920.94;5050909;28;20633;-76
2022/11/22 11:53:56;;;;;;;7.63;4.18;;;;;;;7.59;78.24;93910.56;5037801;28;20219;-76
2022/11/22 11:56:37;;;;;;;6.45;4.03;;;;;;;7.76;78.37;93921.25;5063794;28;20519;-76
2022/11/22 11:59:11;;;;;;;8.20;3.88;;;;;;;7.42;78.92;93910.66;5060923;28;20191;-76
2022/11/22 12:01:44;;;;;;;7.47;3.97;;;;;;;7.23;80.16;93907.59;5057642;28;20284;-76